FQMA/MPM METAR and TAF weather

Enter ICAO airport designator
Station Type Date Time Source
FQMA METAR 2019/04/19 23:00 UTC NOAA

FQMA 192300Z 01006KT 9999 FEW025 23/19 Q1019 NOSIG


Station Type Date Time Source
FQMA Decoded METAR 2019/04/19 23:00 UTC NOAA

Maputo / Mavalane, Mozambique (FQMA) 25-55S 032-34E 44M
Apr 19, 2019 - 07:00 PM EDT / 2019.04.19 2300 UTC
Wind: from the N (010 degrees) at 7 MPH (6 KT):0
Visibility: greater than 7 mile(s):0
Sky conditions: mostly clear
Temperature: 73 F (23 C)
Dew Point: 66 F (19 C)
Relative Humidity: 78%
Pressure (altimeter): 30.09 in. Hg (1019 hPa)
ob: FQMA 192300Z 01006KT 9999 FEW025 23/19 Q1019 NOSIG
cycle: 23

Station Type Date Time Source
FQMA TAF 2019/04/19 18:39 UTC NOAA

TAF FQMA 191600Z 1918/2024 02010G20KT 9999 SCT020 TX31/2013Z TN20/2003Z
BECMG 2000/2002 32010KT
BECMG 2012/2014 06012KT
BECMG 2018/2020 35008KT

Example: see airport list